PWSweather.com
Personal Weather Stations
Station Observations
WISCHPK61
Green Bay Schmitt Park, Green Bay, WI 54311

Green Bay Schmitt ParkGreen Bay, WI 54311

Lat: 44.514277, Lon: -87.935067

Elevation: 735

Station Type: Acu Rite Pro Weather Center model 02032C

http://greenbayweathercam.com

High Low Average
Temperature 48.7°F9.3°C 22.5°F-5.3°C 32.3°F0.2°C
Dew Point 48.4°F9.1°C 14.6°F-9.7°C 30.0°F-1.1°C
Winds Calm Calm Calm Calm Calm SWCalm SW
Wind Gusts -- -- --
Humidity 99% 49% 92%
Pressure 29.54 in1000.3 mb 29.48 in998.3 mb -
Precipitation 0.00 in0.0 mm - -
Hour Temp Dew Point Humidity Winds Wind Gusts Pressure Precip Precip Rate Daily Precip Total
12:00 AM 24.8°F-4.0°C 14.7°F-9.6°C 65% Calm Calm -- 29.53 in1000.0 mb - 0.00 in0.0 mm 0.00 in0.0 mm
01:00 AM 24.4°F-4.2°C 24.2°F-4.3°C 99% Calm Calm -- 29.52 in999.7 mb - 0.00 in0.0 mm 0.00 in0.0 mm
02:00 AM 24.3°F-4.3°C 24.1°F-4.4°C 99% Calm Calm -- 29.51 in999.3 mb - 0.00 in0.0 mm 0.00 in0.0 mm
03:00 AM 24.1°F-4.4°C 23.9°F-4.5°C 99% Calm Calm -- 29.51 in999.3 mb - 0.00 in0.0 mm 0.00 in0.0 mm
04:00 AM 23.7°F-4.6°C 15.3°F-9.3°C 70% Calm Calm -- 29.50 in999.0 mb - 0.00 in0.0 mm 0.00 in0.0 mm
05:00 AM 23.0°F-5.0°C 22.8°F-5.1°C 99% Calm Calm -- 29.49 in998.6 mb - 0.00 in0.0 mm 0.00 in0.0 mm
06:00 AM 22.6°F-5.2°C 14.6°F-9.7°C 71% Calm Calm -- 29.50 in999.0 mb - 0.00 in0.0 mm 0.00 in0.0 mm
07:00 AM 22.5°F-5.3°C 22.3°F-5.4°C 99% Calm Calm -- 29.50 in999.0 mb - 0.00 in0.0 mm 0.00 in0.0 mm
08:00 AM 23.9°F-4.5°C 23.6°F-4.7°C 99% Calm Calm -- 29.50 in999.0 mb - 0.00 in0.0 mm 0.00 in0.0 mm
09:00 AM 28.7°F-1.8°C 28.4°F-2.0°C 99% Calm Calm -- 29.51 in999.3 mb - 0.00 in0.0 mm 0.00 in0.0 mm
10:00 AM 35.5°F1.9°C 29.3°F-1.5°C 78% Calm Calm -- 29.50 in999.0 mb - 0.00 in0.0 mm 0.00 in0.0 mm
11:00 AM 41.4°F5.2°C 41.2°F5.1°C 99% Calm Calm -- 29.50 in999.0 mb - 0.00 in0.0 mm 0.00 in0.0 mm
12:00 PM 43.5°F6.4°C 32.5°F0.3°C 65% Calm Calm -- 29.50 in999.0 mb - 0.00 in0.0 mm 0.00 in0.0 mm
01:00 PM 47.3°F8.5°C 47.0°F8.3°C 99% Calm Calm -- 29.50 in999.0 mb - 0.00 in0.0 mm 0.00 in0.0 mm
02:00 PM 48.7°F9.3°C 48.4°F9.1°C 99% Calm Calm -- 29.50 in999.0 mb - 0.00 in0.0 mm 0.00 in0.0 mm
03:00 PM 47.2°F8.4°C 46.9°F8.3°C 99% Calm Calm -- 29.49 in998.6 mb - 0.00 in0.0 mm 0.00 in0.0 mm
04:00 PM 41.0°F5.0°C 40.7°F4.8°C 99% Calm Calm -- 29.49 in998.6 mb - 0.00 in0.0 mm 0.00 in0.0 mm
05:00 PM 39.2°F4.0°C 38.9°F3.8°C 99% Calm Calm -- 29.48 in998.3 mb - 0.00 in0.0 mm 0.00 in0.0 mm
06:00 PM 37.0°F2.8°C 19.6°F-6.9°C 49% Calm Calm -- 29.49 in998.6 mb - 0.00 in0.0 mm 0.00 in0.0 mm
07:00 PM 34.3°F1.3°C 34.0°F1.1°C 99% Calm Calm -- 29.49 in998.6 mb - 0.00 in0.0 mm 0.00 in0.0 mm
08:00 PM 30.9°F-0.6°C 30.7°F-0.7°C 99% Calm Calm -- 29.51 in999.3 mb - 0.00 in0.0 mm 0.00 in0.0 mm
09:00 PM 29.5°F-1.4°C 29.3°F-1.5°C 99% Calm Calm -- 29.52 in999.7 mb - 0.00 in0.0 mm 0.00 in0.0 mm
10:00 PM 28.5°F-1.9°C 28.3°F-2.1°C 99% Calm Calm -- 29.52 in999.7 mb - 0.00 in0.0 mm 0.00 in0.0 mm
11:00 PM 27.9°F-2.3°C 27.7°F-2.4°C 99% Calm Calm -- 29.53 in1000.0 mb - 0.00 in0.0 mm 0.00 in0.0 mm